createdAt,value
2023-05-15T00:01:51.974Z,12.8
2023-05-15T00:03:55.347Z,12.8
2023-05-15T00:05:58.302Z,13.8
2023-05-15T00:10:04.628Z,15.8
2023-05-15T00:12:07.795Z,13.1
2023-05-15T00:14:14.159Z,11.6
2023-05-15T00:16:17.433Z,11.5
2023-05-15T00:18:20.514Z,11.7
2023-05-15T00:20:44.573Z,11.8
2023-05-15T00:22:47.767Z,10.2
2023-05-15T00:26:57.277Z,13.2
2023-05-15T00:29:00.479Z,10.6
2023-05-15T00:31:03.706Z,10.1
2023-05-15T00:33:06.859Z,10.5
2023-05-15T00:35:09.965Z,10.7
2023-05-15T00:37:13.133Z,10.7
2023-05-15T00:39:16.309Z,11.6
2023-05-15T00:41:22.717Z,12
2023-05-15T00:43:25.864Z,9.8
2023-05-15T00:45:28.998Z,10.6
2023-05-15T00:47:32.194Z,11
2023-05-15T00:49:35.326Z,10
2023-05-15T00:51:38.467Z,8.7
2023-05-15T00:53:41.695Z,10.3
2023-05-15T00:57:51.177Z,11.6
2023-05-15T00:59:54.333Z,9
2023-05-15T01:01:59.166Z,11.5
2023-05-15T01:04:02.200Z,11.9
2023-05-15T01:08:08.519Z,9.4
2023-05-15T01:10:15.577Z,10.3
2023-05-15T01:12:18.767Z,10.2
2023-05-15T01:19:31.606Z,9.4
2023-05-15T01:21:34.599Z,11
2023-05-15T01:23:40.986Z,9.8
2023-05-15T01:25:44.155Z,12.3
2023-05-15T01:27:47.312Z,10.2
2023-05-15T01:29:50.498Z,10.9
2023-05-15T01:31:53.682Z,11.3
2023-05-15T01:33:56.810Z,10.1
2023-05-15T01:35:59.977Z,10.9
2023-05-15T01:38:06.358Z,9.5
2023-05-15T01:40:09.565Z,12
2023-05-15T01:42:12.696Z,13.2
2023-05-15T01:44:15.846Z,13.3
2023-05-15T01:46:19.051Z,12.9
2023-05-15T01:48:22.171Z,14.2
2023-05-15T01:52:31.710Z,14.6
2023-05-15T02:00:44.390Z,14
2023-05-15T02:12:06.556Z,13.6
2023-05-15T02:16:12.923Z,12.9
2023-05-15T02:18:16.031Z,14.2
2023-05-15T02:20:22.421Z,13
2023-05-15T02:22:25.583Z,15.5
2023-05-15T02:24:28.700Z,14.4
2023-05-15T02:26:31.912Z,13.3
2023-05-15T02:28:35.002Z,14.5
2023-05-15T02:30:38.193Z,12.3
2023-05-15T02:32:41.351Z,14.8
2023-05-15T02:36:50.855Z,14.8
2023-05-15T02:40:57.148Z,17.9
2023-05-15T02:45:03.521Z,16.6
2023-05-15T02:47:06.652Z,15.3
2023-05-15T02:53:19.344Z,15.6
2023-05-15T03:03:38.305Z,16.3
2023-05-15T03:05:41.474Z,14.8
2023-05-15T03:07:44.634Z,16.3
2023-05-15T03:23:13.122Z,16.7
2023-05-15T03:27:19.424Z,14.5
2023-05-15T03:29:22.574Z,14.3
2023-05-15T03:35:35.282Z,14.8
2023-05-15T03:37:38.430Z,15.1
2023-05-15T03:41:44.761Z,15.7
2023-05-15T03:43:47.877Z,17.4
2023-05-15T03:45:54.217Z,19.4
2023-05-15T03:52:03.679Z,17.8
2023-05-15T03:54:06.810Z,17.5
2023-05-15T03:56:09.940Z,21.1
2023-05-15T04:04:25.783Z,24
2023-05-15T04:06:49.753Z,24.5
2023-05-15T04:08:52.910Z,23.3
2023-05-15T04:15:05.624Z,25.3
2023-05-15T04:19:11.998Z,24.9
2023-05-15T04:23:18.200Z,20.7
2023-05-15T04:25:21.337Z,22.7
2023-05-15T04:35:40.290Z,21.6
2023-05-15T04:37:43.464Z,22.2
2023-05-15T04:39:46.617Z,20.9
2023-05-15T04:43:56.105Z,19.7
2023-05-15T04:48:02.516Z,18.1
2023-05-15T04:50:05.622Z,20.5
2023-05-15T04:52:08.745Z,20.5
2023-05-15T04:54:11.883Z,18.5
2023-05-15T05:01:27.848Z,18.9
2023-05-15T05:03:30.965Z,17
2023-05-15T05:05:34.080Z,19.9
2023-05-15T05:07:37.227Z,19.5
2023-05-15T05:09:43.580Z,19.7
2023-05-15T05:11:46.753Z,18.4
2023-05-15T05:13:49.917Z,20
2023-05-15T05:15:53.125Z,19.8
2023-05-15T05:22:02.547Z,19.1
2023-05-15T05:24:08.918Z,20.5
2023-05-15T05:26:12.092Z,17.7
2023-05-15T05:28:15.236Z,14.1
2023-05-15T05:30:18.381Z,18.6
2023-05-15T05:34:24.692Z,18.8
2023-05-15T05:36:27.869Z,19.7
2023-05-15T05:38:34.262Z,17.9
2023-05-15T05:40:37.403Z,18.8
2023-05-15T05:44:43.754Z,18.2
2023-05-15T05:46:46.987Z,20.1
2023-05-15T05:48:49.950Z,17.1
2023-05-15T05:50:53.028Z,16.8
2023-05-15T05:52:59.280Z,18.9
2023-05-15T05:55:02.346Z,19.5
2023-05-15T06:00:11.518Z,15.4
2023-05-15T06:10:29.929Z,15
2023-05-15T06:12:32.987Z,15.9
2023-05-15T06:14:36.067Z,17
2023-05-15T06:16:39.164Z,16.1
2023-05-15T06:18:42.204Z,13.3
2023-05-15T06:20:48.327Z,14.7
2023-05-15T06:22:51.418Z,13.9
2023-05-15T06:26:57.517Z,13.9
2023-05-15T06:29:00.579Z,12.8
2023-05-15T06:33:06.738Z,7.1
2023-05-15T06:37:15.898Z,9.8
2023-05-15T06:43:25.044Z,8.2
2023-05-15T06:45:28.422Z,8.7
2023-05-15T06:47:31.270Z,7.5
2023-05-15T06:49:37.323Z,7.3
2023-05-15T06:51:40.355Z,7.4
2023-05-15T06:53:43.398Z,6.5
2023-05-15T06:54:46.483Z,6.7
2023-05-15T06:56:51.140Z,8
2023-05-15T06:58:54.108Z,6.2
2023-05-15T07:00:58.741Z,5.6
2023-05-15T07:03:03.352Z,7.8
2023-05-15T07:05:06.404Z,6.5
2023-05-15T07:07:09.387Z,5.6
2023-05-15T07:09:12.411Z,6.5
2023-05-15T07:11:15.455Z,7.5
2023-05-15T07:15:21.502Z,5.2
2023-05-15T07:17:27.744Z,5.1
2023-05-15T07:19:30.774Z,2.8
2023-05-15T07:21:33.720Z,3.9
2023-05-15T07:23:36.749Z,4.6
2023-05-15T07:25:39.991Z,5.1
2023-05-15T07:27:42.834Z,5.3
2023-05-15T07:29:45.834Z,3.8
2023-05-15T07:31:52.074Z,4.2
2023-05-15T07:33:55.023Z,3.8
2023-05-15T07:35:58.057Z,4.4
2023-05-15T07:38:01.114Z,3.3
2023-05-15T07:42:07.151Z,3.2
2023-05-15T07:44:10.186Z,2.5
2023-05-15T07:46:16.353Z,2.6
2023-05-15T07:48:19.345Z,1.4
2023-05-15T07:50:22.348Z,3.5
2023-05-15T07:52:51.639Z,2.6
2023-05-15T07:54:54.661Z,1.5
2023-05-15T07:56:57.690Z,2.9
2023-05-15T07:59:03.837Z,2.5
2023-05-15T08:01:06.790Z,1.9
2023-05-15T08:03:09.907Z,2.6
2023-05-15T08:05:12.844Z,1.8
2023-05-15T08:09:18.854Z,1.6
2023-05-15T08:11:21.866Z,1.4
2023-05-15T08:13:27.959Z,4.1
2023-05-15T08:15:30.976Z,1.9
2023-05-15T08:17:34.070Z,3.2
2023-05-15T08:19:36.942Z,1.1
2023-05-15T08:21:39.935Z,2
2023-05-15T08:23:42.939Z,2.2
2023-05-15T08:25:45.935Z,1.8
2023-05-15T08:27:52.058Z,2
2023-05-15T08:29:55.043Z,1.1
2023-05-15T08:31:57.982Z,1.8
2023-05-15T08:34:01.008Z,1.4
2023-05-15T08:36:04.074Z,0.9
2023-05-15T08:38:06.948Z,0.9
2023-05-15T08:40:09.946Z,1.6
2023-05-15T08:44:19.028Z,2
2023-05-15T08:55:40.819Z,1.6
2023-05-15T08:57:43.771Z,1.7
2023-05-15T09:01:49.673Z,0.9
2023-05-15T09:03:52.731Z,2.2
2023-05-15T09:05:55.523Z,2.8
2023-05-15T09:07:58.478Z,1.2
2023-05-15T09:10:04.501Z,1.3
2023-05-15T09:14:10.408Z,1.3
2023-05-15T09:16:13.333Z,1.3
2023-05-15T09:18:16.246Z,2.6
2023-05-15T09:24:28.161Z,1.4
2023-05-15T09:26:31.091Z,3.1
2023-05-15T09:28:34.043Z,3.1
2023-05-15T09:36:45.667Z,1.8
2023-05-15T09:38:51.781Z,3.2
2023-05-15T09:40:54.658Z,3.8
2023-05-15T09:42:57.592Z,3.2
2023-05-15T09:44:00.633Z,2.4
2023-05-15T09:46:03.653Z,2.2
2023-05-15T09:50:09.426Z,4
2023-05-15T09:52:15.478Z,4.1
2023-05-15T09:54:18.406Z,6.5
2023-05-15T10:00:27.347Z,1.9
2023-05-15T10:02:30.180Z,1.9
2023-05-15T10:12:48.401Z,2.5
2023-05-15T10:14:50.951Z,2.3
2023-05-15T10:18:56.915Z,3.3
2023-05-15T10:21:02.916Z,2.5
2023-05-15T10:23:05.913Z,1.7
2023-05-15T10:27:11.813Z,1.2
2023-05-15T10:29:14.784Z,1.2
2023-05-15T10:31:17.772Z,1.3
2023-05-15T10:33:20.688Z,0.6
2023-05-15T10:35:26.812Z,0.5
2023-05-15T10:37:29.736Z,0.3
2023-05-15T10:39:32.713Z,0.2
2023-05-15T10:42:38.707Z,0.8
2023-05-15T10:59:05.447Z,1.5
2023-05-15T11:01:08.399Z,1.3
2023-05-15T11:03:14.444Z,1.7
2023-05-15T11:21:43.808Z,2.7
2023-05-15T11:23:46.705Z,2.2
2023-05-15T11:25:49.636Z,2
2023-05-15T11:29:55.504Z,3.1
2023-05-15T11:32:01.564Z,2.4
2023-05-15T11:34:04.508Z,2.3
2023-05-15T11:36:07.457Z,3
2023-05-15T11:38:30.780Z,3.2
2023-05-15T11:40:33.744Z,3.1
2023-05-15T11:42:36.731Z,2.2
2023-05-15T11:44:42.780Z,2.2
2023-05-15T11:46:45.806Z,3.5
2023-05-15T11:48:48.678Z,3.1
2023-05-15T11:52:54.622Z,4.4
2023-05-15T11:57:00.549Z,4.3
2023-05-15T11:59:06.607Z,6
2023-05-15T12:01:10.905Z,4.9
2023-05-15T12:03:12.657Z,3.2
2023-05-15T12:05:15.500Z,5.6
2023-05-15T12:07:18.448Z,6.3
2023-05-15T12:09:21.424Z,8.6
2023-05-15T12:11:24.425Z,6.7
2023-05-15T12:13:30.473Z,8.5
2023-05-15T12:15:33.445Z,8.4
2023-05-15T12:17:36.433Z,8.5
2023-05-15T12:19:39.435Z,7.5
2023-05-15T12:21:42.360Z,7.6
2023-05-15T12:23:50.791Z,7.4
2023-05-15T12:25:48.372Z,7
2023-05-15T12:27:54.484Z,9.9
2023-05-15T12:33:03.578Z,9.2
2023-05-15T12:35:06.570Z,8
2023-05-15T12:37:09.552Z,9.2
2023-05-15T12:39:12.529Z,8.3
2023-05-15T12:41:18.670Z,9.8
2023-05-15T12:45:24.687Z,10.7
2023-05-15T12:47:27.788Z,8.1
2023-05-15T12:51:35.283Z,8.8
2023-05-15T12:53:38.267Z,8.5
2023-05-15T12:55:44.354Z,7.3
2023-05-15T12:57:47.376Z,9.2
2023-05-15T12:59:50.379Z,9.4
2023-05-15T13:01:53.454Z,9.9
2023-05-15T13:03:56.662Z,8.3
2023-05-15T13:05:59.416Z,8.6
2023-05-15T13:18:20.599Z,7.7
2023-05-15T13:28:38.754Z,6
2023-05-15T13:29:41.838Z,8.8
2023-05-15T13:33:47.848Z,7.5
2023-05-15T13:35:50.891Z,6.4
2023-05-15T13:37:57.013Z,7.8
2023-05-15T13:39:59.988Z,8.1
2023-05-15T13:44:05.983Z,6.1
2023-05-15T13:46:08.990Z,6.1
2023-05-15T13:48:12.063Z,5.4
2023-05-15T13:50:15.001Z,6.3
2023-05-15T13:52:21.150Z,5.9
2023-05-15T13:54:24.145Z,6.3
2023-05-15T13:56:27.159Z,5.3
2023-05-15T14:00:33.221Z,4.4
2023-05-15T14:04:39.225Z,4.4
2023-05-15T14:06:45.328Z,5.3
2023-05-15T14:08:48.370Z,4.7
2023-05-15T14:10:51.352Z,4.2
2023-05-15T14:14:57.371Z,6
2023-05-15T14:19:03.392Z,5.2
2023-05-15T14:21:09.533Z,4.2
2023-05-15T14:23:12.477Z,4.1
2023-05-15T14:28:21.485Z,4.9
2023-05-15T14:30:24.711Z,3.3
2023-05-15T14:32:27.432Z,5
2023-05-15T14:59:12.334Z,2.7
2023-05-15T15:01:15.372Z,2
2023-05-15T15:03:21.486Z,3.4
2023-05-15T15:05:24.448Z,2.1
2023-05-15T15:07:27.390Z,3.1
2023-05-15T15:09:30.396Z,2.8
2023-05-15T15:26:23.668Z,2.9
2023-05-15T15:38:44.838Z,5.4
2023-05-15T15:40:47.881Z,5.5
2023-05-15T15:49:04.625Z,4.7
2023-05-15T15:51:06.078Z,3
2023-05-15T15:53:09.091Z,3.6
2023-05-15T15:55:12.177Z,4.5
2023-05-15T15:57:15.203Z,4.9
2023-05-15T15:59:21.344Z,3.7
2023-05-15T16:01:24.390Z,3.3
2023-05-15T16:13:45.796Z,2.4
2023-05-15T16:15:48.852Z,2.5
2023-05-15T16:17:52.055Z,2.4
2023-05-15T16:18:55.091Z,1.7
2023-05-15T16:20:58.052Z,2.4
2023-05-15T16:27:10.322Z,1.5
2023-05-15T16:29:13.396Z,1.5
2023-05-15T16:31:16.482Z,0.7
2023-05-15T16:33:19.515Z,1.5
2023-05-15T16:35:22.540Z,1
2023-05-15T16:37:25.603Z,1
2023-05-15T16:39:28.649Z,0.5
2023-05-15T16:41:34.834Z,1
2023-05-15T16:43:37.907Z,0.7
2023-05-15T16:45:40.947Z,0.6
2023-05-15T16:51:50.111Z,0.6
2023-05-15T16:53:53.176Z,1.4
2023-05-15T16:55:59.344Z,0.7
2023-05-15T17:00:05.420Z,0.1
2023-05-15T17:02:08.600Z,0.7
2023-05-15T17:04:11.701Z,0.4
2023-05-15T17:06:14.592Z,0.4
2023-05-15T17:08:17.694Z,0.8
2023-05-15T17:10:23.939Z,1.2
2023-05-15T17:12:26.878Z,0.5
2023-05-15T17:14:29.961Z,0.3
2023-05-15T17:15:33.024Z,1
2023-05-15T17:17:36.096Z,1.2
2023-05-15T17:19:39.155Z,0.9
2023-05-15T17:21:42.183Z,0.7
2023-05-15T17:23:48.362Z,0.8
2023-05-15T17:25:51.461Z,0.6
2023-05-15T17:27:54.465Z,0.6
2023-05-15T17:29:57.649Z,0.6
2023-05-15T17:32:00.674Z,0.9
2023-05-15T17:34:03.646Z,1.4
2023-05-15T17:36:06.750Z,1.5
2023-05-15T17:40:15.937Z,0.2
2023-05-15T17:46:25.194Z,1.1
2023-05-15T17:48:28.202Z,0.4
2023-05-15T17:50:31.219Z,1.8
2023-05-15T17:52:37.404Z,0.6
2023-05-15T17:54:40.486Z,0.6
2023-05-15T17:56:43.513Z,0.9
2023-05-15T17:58:46.604Z,0.4
2023-05-15T18:00:49.606Z,0.5
2023-05-15T18:02:52.756Z,0.8
2023-05-15T18:04:55.776Z,0.9
2023-05-15T18:07:01.938Z,0.7
2023-05-15T18:09:05.018Z,1.2
2023-05-15T18:11:17.659Z,0.2
2023-05-15T18:12:11.150Z,1.3
2023-05-15T18:18:20.350Z,1.2
2023-05-15T18:24:32.638Z,2.5
2023-05-15T18:26:35.748Z,1.4
2023-05-15T18:28:38.762Z,0.7
2023-05-15T18:30:41.851Z,2.2
2023-05-15T18:32:44.995Z,2.1
2023-05-15T18:36:54.178Z,2.3
2023-05-15T18:38:57.223Z,3.3
2023-05-15T18:41:00.257Z,2.3
2023-05-15T18:43:03.320Z,2.1
2023-05-15T18:45:06.364Z,2.5
2023-05-15T18:47:11.117Z,2.1
2023-05-15T18:49:17.217Z,2.7
2023-05-15T18:51:20.202Z,1.9
2023-05-15T18:55:26.546Z,1.5
2023-05-15T18:57:29.431Z,1.5
2023-05-15T19:18:32.820Z,1.2
2023-05-15T19:24:41.973Z,0.7
2023-05-15T19:26:45.053Z,0.6
2023-05-15T19:28:48.115Z,0.3
2023-05-15T19:30:54.273Z,0.8
2023-05-15T19:32:57.424Z,1.3
2023-05-15T19:37:03.577Z,1
2023-05-15T19:39:06.653Z,1.4
2023-05-15T19:45:19.048Z,8.1
2023-05-15T19:47:22.116Z,9.9
2023-05-15T19:51:28.245Z,64.4
2023-05-15T19:53:31.287Z,73.5
2023-05-15T19:59:43.553Z,17.3
2023-05-15T20:03:49.802Z,14.8
2023-05-15T20:04:52.775Z,12.6
2023-05-15T20:11:01.920Z,10.5
2023-05-15T20:23:23.386Z,2.3
2023-05-15T20:25:26.616Z,0.9
2023-05-15T20:29:35.746Z,0.2
2023-05-15T20:31:38.979Z,0.2
2023-05-15T20:33:42.108Z,0.5
2023-05-15T20:35:45.152Z,0.2
2023-05-15T20:37:48.308Z,0.1
2023-05-15T20:39:51.458Z,0.2
2023-05-15T20:41:57.836Z,0.6
2023-05-15T20:44:01.035Z,0.1
2023-05-15T20:46:04.215Z,0.3
2023-05-15T20:48:07.365Z,0.3
2023-05-15T20:52:13.637Z,0.3
2023-05-15T20:58:26.326Z,0.7
2023-05-15T21:00:29.482Z,0.1
2023-05-15T21:07:42.078Z,2.1
2023-05-15T21:09:48.400Z,0.5
2023-05-15T21:11:51.566Z,0.5
2023-05-15T21:13:54.711Z,0.1
2023-05-15T21:15:57.894Z,0.6
2023-05-15T21:20:04.184Z,1.1
2023-05-15T21:22:07.303Z,0.2
2023-05-15T21:28:19.937Z,0.1
2023-05-15T21:30:23.038Z,0.4
2023-05-15T21:32:26.297Z,2.1
2023-05-15T21:38:38.885Z,0.2
2023-05-15T21:40:42.022Z,5.1
2023-05-15T21:44:48.316Z,0.4
2023-05-15T21:46:51.437Z,0.5
2023-05-15T21:48:54.580Z,0.2
2023-05-15T21:50:57.747Z,0.9
2023-05-15T21:55:07.236Z,1.6
2023-05-15T21:57:10.374Z,0.5
2023-05-15T22:04:22.972Z,0.3
2023-05-15T22:10:35.616Z,0.2
2023-05-15T22:12:38.780Z,0.5
2023-05-15T22:20:54.465Z,0.5
2023-05-15T22:25:00.784Z,0.4
2023-05-15T22:27:03.912Z,0.8
2023-05-15T22:29:07.034Z,1.1
2023-05-15T22:31:10.227Z,1.8
2023-05-15T22:33:13.442Z,0.4
2023-05-15T22:35:19.700Z,0.8
2023-05-15T22:39:25.996Z,2.4
2023-05-15T22:41:29.113Z,1
2023-05-15T22:43:32.278Z,0.6
2023-05-15T22:45:35.398Z,0.8
2023-05-15T22:47:38.612Z,1.2
2023-05-15T22:49:44.901Z,3.1
2023-05-15T22:51:48.028Z,2
2023-05-15T22:53:51.163Z,1
2023-05-15T22:56:20.944Z,1.2
2023-05-15T22:58:24.070Z,2.2
2023-05-15T23:00:27.521Z,1.6
2023-05-15T23:04:36.692Z,0.8
2023-05-15T23:06:39.856Z,0.9
2023-05-15T23:08:42.995Z,1.2
2023-05-15T23:10:46.119Z,0.3
2023-05-15T23:12:49.302Z,1
2023-05-15T23:14:52.456Z,0.7
2023-05-15T23:16:58.790Z,1.1
2023-05-15T23:19:02.013Z,1.8
2023-05-15T23:21:05.101Z,1.8
2023-05-15T23:23:08.207Z,0.8
2023-05-15T23:25:11.359Z,1.6
2023-05-15T23:27:14.502Z,1.5
2023-05-15T23:29:17.661Z,2.1
2023-05-15T23:31:24.030Z,2.4
2023-05-15T23:33:27.151Z,0.9
2023-05-15T23:35:30.291Z,1
2023-05-15T23:37:33.430Z,1.5
2023-05-15T23:39:36.573Z,1.1
2023-05-15T23:41:39.685Z,0.8
2023-05-15T23:43:42.885Z,1
2023-05-15T23:45:49.216Z,0.9
2023-05-15T23:47:52.373Z,1
2023-05-15T23:49:55.489Z,1.1
2023-05-15T23:55:04.942Z,1.3
2023-05-15T23:57:08.095Z,2.7
2023-05-15T23:59:14.412Z,1
